AFL2224 UUEE-UWSG
Flight info
| Callsign | AFL2224 |
|---|---|
| Flight time | 1h 15m |
| Altitude | 39000 |
| Route | UUEE/24C TOGMO M56 PISAR T385 SOKUR SOKUR1H |
| Aircraft | A20N/M-SDE2E3FGHIRWXY/LB1 |
Departure
| Time | 2026-05-04 19:08 |
|---|---|
| Airport | Sheremetyevo International Airport (UUEE) |
Arrival
| Time | 2026-05-04 20:24 |
|---|---|
| Airport | Gagarin International Airport (UWSG) |
| Time | Latitude | Longitude | Altitude | Speed | Heading |
|---|---|---|---|---|---|
| 2026-05-04 18:51 | 55.98125 | 37.42109 | 615 ft | 0 kts | 75° |
| 2026-05-04 19:04 | 55.98127 | 37.42126 | 616 ft | 5 kts | 75° |
| 2026-05-04 19:05 | 55.98119 | 37.42197 | 615 ft | 7 kts | 134° |
| 2026-05-04 19:05 | 55.98060 | 37.42238 | 614 ft | 12 kts | 163° |
| 2026-05-04 19:05 | 55.97971 | 37.42281 | 613 ft | 14 kts | 164° |
| 2026-05-04 19:05 | 55.97873 | 37.42327 | 613 ft | 14 kts | 165° |
| 2026-05-04 19:06 | 55.97769 | 37.42370 | 612 ft | 15 kts | 166° |
| 2026-05-04 19:06 | 55.97718 | 37.42447 | 610 ft | 10 kts | 88° |
| 2026-05-04 19:06 | 55.97736 | 37.42578 | 611 ft | 11 kts | 75° |
| 2026-05-04 19:06 | 55.97756 | 37.42724 | 608 ft | 10 kts | 79° |
| 2026-05-04 19:07 | 55.97707 | 37.42804 | 607 ft | 11 kts | 169° |
| 2026-05-04 19:07 | 55.97622 | 37.42827 | 606 ft | 11 kts | 194° |
| 2026-05-04 19:07 | 55.97588 | 37.42750 | 608 ft | 0 kts | 255° |
| 2026-05-04 19:07 | 55.97585 | 37.42732 | 608 ft | 8 kts | 254° |
| 2026-05-04 19:08 | 55.97516 | 37.42274 | 610 ft | 73 kts | 253° |
| 2026-05-04 19:08 | 55.97330 | 37.41018 | 619 ft | 134 kts | 255° |
| 2026-05-04 19:08 | 55.97053 | 37.39151 | 798 ft | 166 kts | 254° |
| 2026-05-04 19:08 | 55.96761 | 37.37217 | 1438 ft | 162 kts | 253° |
| 2026-05-04 19:09 | 55.96432 | 37.35308 | 2096 ft | 164 kts | 252° |
| 2026-05-04 19:09 | 55.96064 | 37.33442 | 2743 ft | 155 kts | 249° |
| 2026-05-04 19:09 | 55.95700 | 37.31672 | 3024 ft | 165 kts | 255° |
| 2026-05-04 19:09 | 55.95407 | 37.29569 | 3405 ft | 183 kts | 257° |
| 2026-05-04 19:10 | 55.95092 | 37.27274 | 3836 ft | 200 kts | 256° |
| 2026-05-04 19:10 | 55.94735 | 37.24802 | 4283 ft | 217 kts | 256° |
| 2026-05-04 19:10 | 55.94327 | 37.22085 | 4746 ft | 235 kts | 255° |
| 2026-05-04 19:10 | 55.93886 | 37.19208 | 5258 ft | 251 kts | 255° |
| 2026-05-04 19:11 | 55.93412 | 37.16168 | 6014 ft | 257 kts | 254° |
| 2026-05-04 19:11 | 55.92935 | 37.13128 | 6814 ft | 260 kts | 254° |
| 2026-05-04 19:11 | 55.92448 | 37.10046 | 7625 ft | 264 kts | 254° |
| 2026-05-04 19:11 | 55.91955 | 37.06923 | 8457 ft | 267 kts | 254° |
| 2026-05-04 19:12 | 55.91620 | 37.03687 | 9238 ft | 271 kts | 271° |
| 2026-05-04 19:12 | 55.93291 | 36.97776 | 10818 ft | 284 kts | 319° |
| 2026-05-04 19:12 | 55.94890 | 36.95763 | 11556 ft | 288 kts | 322° |
| 2026-05-04 19:13 | 55.96553 | 36.93742 | 12294 ft | 291 kts | 323° |
| 2026-05-04 19:13 | 55.98362 | 36.92118 | 13042 ft | 300 kts | 344° |
| 2026-05-04 19:13 | 56.00442 | 36.92031 | 13581 ft | 308 kts | 9° |
| 2026-05-04 19:13 | 56.02392 | 36.93549 | 13818 ft | 315 kts | 29° |
| 2026-05-04 19:14 | 56.04220 | 36.95742 | 13851 ft | 316 kts | 31° |
| 2026-05-04 19:14 | 56.06025 | 36.97957 | 13855 ft | 317 kts | 31° |
| 2026-05-04 19:14 | 56.07845 | 37.00150 | 13856 ft | 317 kts | 30° |
| 2026-05-04 19:14 | 56.09640 | 37.02590 | 13845 ft | 336 kts | 45° |
| 2026-05-04 19:15 | 56.10788 | 37.06294 | 14123 ft | 356 kts | 76° |
| 2026-05-04 19:15 | 56.10848 | 37.10699 | 14882 ft | 355 kts | 103° |
| 2026-05-04 19:15 | 56.09898 | 37.14712 | 15631 ft | 353 kts | 123° |
| 2026-05-04 19:15 | 56.08525 | 37.18374 | 16203 ft | 358 kts | 126° |
| 2026-05-04 19:16 | 56.07144 | 37.22089 | 16756 ft | 363 kts | 124° |
| 2026-05-04 19:16 | 56.05846 | 37.25898 | 17385 ft | 367 kts | 122° |
| 2026-05-04 19:16 | 56.04575 | 37.29914 | 18010 ft | 371 kts | 120° |
| 2026-05-04 19:16 | 56.03350 | 37.33973 | 18600 ft | 375 kts | 119° |
| 2026-05-04 19:17 | 56.02130 | 37.38112 | 19206 ft | 378 kts | 119° |
| 2026-05-04 19:17 | 56.00929 | 37.42234 | 19798 ft | 381 kts | 118° |
| 2026-05-04 19:17 | 55.99707 | 37.46446 | 20390 ft | 384 kts | 118° |
| 2026-05-04 19:17 | 55.98479 | 37.50680 | 20958 ft | 387 kts | 118° |
| 2026-05-04 19:18 | 55.97245 | 37.54930 | 21523 ft | 390 kts | 118° |
| 2026-05-04 19:18 | 55.96001 | 37.59208 | 22067 ft | 393 kts | 118° |
| 2026-05-04 19:18 | 55.94727 | 37.63583 | 22624 ft | 396 kts | 118° |
| 2026-05-04 19:18 | 55.93467 | 37.67905 | 23127 ft | 399 kts | 119° |
| 2026-05-04 19:19 | 55.92176 | 37.72328 | 23629 ft | 402 kts | 119° |
| 2026-05-04 19:19 | 55.90875 | 37.76708 | 24119 ft | 405 kts | 120° |
| 2026-05-04 19:19 | 55.89513 | 37.81087 | 24597 ft | 408 kts | 121° |
| 2026-05-04 19:19 | 55.88119 | 37.85479 | 25062 ft | 411 kts | 121° |
| 2026-05-04 19:20 | 55.86710 | 37.89924 | 25522 ft | 414 kts | 121° |
| 2026-05-04 19:20 | 55.85297 | 37.94408 | 25982 ft | 416 kts | 121° |
| 2026-05-04 19:20 | 55.83682 | 37.98651 | 26384 ft | 416 kts | 136° |
| 2026-05-04 19:20 | 55.81388 | 38.01635 | 26816 ft | 410 kts | 158° |
| 2026-05-04 19:21 | 55.78719 | 38.03042 | 27264 ft | 403 kts | 177° |
| 2026-05-04 19:21 | 55.75941 | 38.02833 | 27656 ft | 399 kts | 195° |
| 2026-05-04 19:21 | 55.73396 | 38.01086 | 28012 ft | 395 kts | 214° |
| 2026-05-04 19:21 | 55.71280 | 37.98056 | 28373 ft | 393 kts | 227° |
| 2026-05-04 19:22 | 55.69344 | 37.94575 | 28724 ft | 396 kts | 227° |
| 2026-05-04 19:22 | 55.67326 | 37.91265 | 28946 ft | 404 kts | 218° |
| 2026-05-04 19:22 | 55.64852 | 37.88850 | 29101 ft | 415 kts | 203° |
| 2026-05-04 19:22 | 55.62050 | 37.87630 | 29257 ft | 426 kts | 188° |
| 2026-05-04 19:23 | 55.59045 | 37.87686 | 29429 ft | 435 kts | 177° |
| 2026-05-04 19:23 | 55.56038 | 37.88199 | 29577 ft | 442 kts | 176° |
| 2026-05-04 19:23 | 55.52964 | 37.88753 | 29726 ft | 448 kts | 176° |
| 2026-05-04 19:23 | 55.49834 | 37.89299 | 29971 ft | 451 kts | 177° |
| 2026-05-04 19:24 | 55.46741 | 37.89822 | 30356 ft | 450 kts | 176° |
| 2026-05-04 19:24 | 55.43660 | 37.90611 | 30767 ft | 450 kts | 171° |
| 2026-05-04 19:24 | 55.40624 | 37.91922 | 31155 ft | 451 kts | 165° |
| 2026-05-04 19:24 | 55.37656 | 37.93761 | 31511 ft | 452 kts | 159° |
| 2026-05-04 19:25 | 55.34819 | 37.96096 | 31841 ft | 453 kts | 153° |
| 2026-05-04 19:25 | 55.32143 | 37.98884 | 32174 ft | 454 kts | 148° |
| 2026-05-04 19:25 | 55.29504 | 38.01966 | 32518 ft | 453 kts | 147° |
| 2026-05-04 19:25 | 55.26925 | 38.05025 | 32833 ft | 453 kts | 147° |
| 2026-05-04 19:26 | 55.24320 | 38.08109 | 33118 ft | 453 kts | 147° |
| 2026-05-04 19:26 | 55.21708 | 38.11190 | 33401 ft | 453 kts | 147° |
| 2026-05-04 19:26 | 55.19130 | 38.14216 | 33674 ft | 453 kts | 147° |
| 2026-05-04 19:26 | 55.16499 | 38.17293 | 33954 ft | 452 kts | 147° |
| 2026-05-04 19:27 | 55.13894 | 38.20332 | 34228 ft | 452 kts | 147° |
| 2026-05-04 19:27 | 55.11313 | 38.23340 | 34498 ft | 451 kts | 147° |
| 2026-05-04 19:27 | 55.08691 | 38.26390 | 34757 ft | 451 kts | 146° |
| 2026-05-04 19:27 | 55.06100 | 38.29398 | 34974 ft | 450 kts | 146° |
| 2026-05-04 19:28 | 55.03520 | 38.32390 | 35185 ft | 450 kts | 146° |
| 2026-05-04 19:28 | 55.00903 | 38.35421 | 35389 ft | 450 kts | 146° |
| 2026-05-04 19:28 | 54.98332 | 38.38393 | 35585 ft | 449 kts | 147° |
| 2026-05-04 19:28 | 54.95732 | 38.41391 | 35763 ft | 449 kts | 146° |
| 2026-05-04 19:29 | 54.93131 | 38.44386 | 35930 ft | 449 kts | 146° |
| 2026-05-04 19:29 | 54.90546 | 38.47358 | 36108 ft | 449 kts | 146° |
| 2026-05-04 19:29 | 54.87932 | 38.50354 | 36273 ft | 449 kts | 146° |
| 2026-05-04 19:29 | 54.85355 | 38.53295 | 36441 ft | 448 kts | 146° |
| 2026-05-04 19:30 | 54.82756 | 38.56260 | 36592 ft | 448 kts | 146° |
| 2026-05-04 19:30 | 54.80169 | 38.59211 | 36728 ft | 448 kts | 146° |
| 2026-05-04 19:30 | 54.77554 | 38.62192 | 36891 ft | 449 kts | 146° |
| 2026-05-04 19:30 | 54.74912 | 38.65068 | 37057 ft | 449 kts | 149° |
| 2026-05-04 19:31 | 54.72272 | 38.67819 | 37241 ft | 448 kts | 149° |
| 2026-05-04 19:31 | 54.69606 | 38.70616 | 37432 ft | 447 kts | 149° |
| 2026-05-04 19:31 | 54.66977 | 38.73370 | 37608 ft | 447 kts | 149° |
| 2026-05-04 19:31 | 54.64314 | 38.76144 | 37775 ft | 447 kts | 149° |
| 2026-05-04 19:32 | 54.61645 | 38.78913 | 37910 ft | 446 kts | 149° |
| 2026-05-04 19:32 | 54.58999 | 38.81656 | 38037 ft | 446 kts | 149° |
| 2026-05-04 19:32 | 54.56370 | 38.84381 | 38152 ft | 446 kts | 149° |
| 2026-05-04 19:32 | 54.53708 | 38.87142 | 38267 ft | 446 kts | 149° |
| 2026-05-04 19:33 | 54.51058 | 38.89885 | 38385 ft | 445 kts | 149° |
| 2026-05-04 19:33 | 54.48426 | 38.92605 | 38487 ft | 445 kts | 149° |
| 2026-05-04 19:33 | 54.45806 | 38.95352 | 38595 ft | 445 kts | 146° |
| 2026-05-04 19:34 | 54.41030 | 39.02052 | 38732 ft | 445 kts | 133° |
| 2026-05-04 19:34 | 54.37241 | 39.10366 | 38730 ft | 448 kts | 120° |
| 2026-05-04 19:35 | 54.34525 | 39.19979 | 38758 ft | 451 kts | 111° |
| 2026-05-04 19:35 | 54.32198 | 39.29943 | 38710 ft | 456 kts | 111° |
| 2026-05-04 19:36 | 54.29776 | 39.39967 | 38625 ft | 460 kts | 111° |
| 2026-05-04 19:36 | 54.27296 | 39.50127 | 38517 ft | 464 kts | 111° |
| 2026-05-04 19:37 | 54.24805 | 39.60292 | 38405 ft | 468 kts | 111° |
| 2026-05-04 19:37 | 54.22288 | 39.70536 | 38278 ft | 471 kts | 112° |
| 2026-05-04 19:38 | 54.19755 | 39.80813 | 38235 ft | 472 kts | 112° |
| 2026-05-04 19:38 | 54.17210 | 39.91080 | 38214 ft | 472 kts | 112° |
| 2026-05-04 19:39 | 54.14659 | 40.01311 | 38421 ft | 467 kts | 112° |
| 2026-05-04 19:39 | 54.13384 | 40.06403 | 38683 ft | 462 kts | 112° |
| 2026-05-04 19:39 | 54.12176 | 40.11425 | 38880 ft | 457 kts | 110° |
| 2026-05-04 19:40 | 54.10202 | 40.21663 | 38932 ft | 458 kts | 105° |
| 2026-05-04 19:40 | 54.08419 | 40.32001 | 38934 ft | 460 kts | 105° |
| 2026-05-04 19:41 | 54.06607 | 40.42441 | 38923 ft | 461 kts | 105° |
| 2026-05-04 19:41 | 54.04779 | 40.52884 | 38926 ft | 462 kts | 105° |
| 2026-05-04 19:42 | 54.02940 | 40.63324 | 38930 ft | 463 kts | 105° |
| 2026-05-04 19:42 | 54.01091 | 40.73773 | 38931 ft | 464 kts | 106° |
| 2026-05-04 19:43 | 53.99229 | 40.84244 | 38933 ft | 465 kts | 106° |
| 2026-05-04 19:43 | 53.97352 | 40.94722 | 38935 ft | 466 kts | 106° |
| 2026-05-04 19:44 | 53.95466 | 41.05200 | 38929 ft | 467 kts | 105° |
| 2026-05-04 19:44 | 53.93726 | 41.15744 | 38937 ft | 467 kts | 104° |
| 2026-05-04 19:45 | 53.92002 | 41.26362 | 38931 ft | 468 kts | 104° |
| 2026-05-04 19:45 | 53.90253 | 41.36984 | 38934 ft | 468 kts | 104° |
| 2026-05-04 19:46 | 53.88476 | 41.47560 | 38934 ft | 469 kts | 105° |
| 2026-05-04 19:46 | 53.86695 | 41.58094 | 38929 ft | 469 kts | 104° |
| 2026-05-04 19:47 | 53.84912 | 41.68700 | 38938 ft | 469 kts | 105° |
| 2026-05-04 19:47 | 53.83120 | 41.79275 | 38940 ft | 469 kts | 105° |
| 2026-05-04 19:48 | 53.81305 | 41.89805 | 38953 ft | 469 kts | 105° |
| 2026-05-04 19:48 | 53.79477 | 42.00386 | 38954 ft | 470 kts | 105° |
| 2026-05-04 19:49 | 53.77645 | 42.10954 | 38948 ft | 470 kts | 105° |
| 2026-05-04 19:49 | 53.75812 | 42.21474 | 38952 ft | 470 kts | 105° |
| 2026-05-04 19:50 | 53.73955 | 42.32069 | 38949 ft | 471 kts | 105° |
| 2026-05-04 19:50 | 53.72096 | 42.42625 | 38952 ft | 471 kts | 105° |
| 2026-05-04 19:51 | 53.70243 | 42.53103 | 38953 ft | 471 kts | 105° |
| 2026-05-04 19:51 | 53.68361 | 42.63665 | 38963 ft | 471 kts | 105° |
| 2026-05-04 19:52 | 53.66603 | 42.74273 | 38954 ft | 472 kts | 104° |
| 2026-05-04 19:52 | 53.64938 | 42.84866 | 38951 ft | 472 kts | 104° |
| 2026-05-04 19:53 | 53.63256 | 42.95519 | 38956 ft | 472 kts | 104° |
| 2026-05-04 19:53 | 53.61567 | 43.06160 | 38954 ft | 472 kts | 104° |
| 2026-05-04 19:54 | 53.59863 | 43.16823 | 38950 ft | 473 kts | 104° |
| 2026-05-04 19:54 | 53.58157 | 43.27424 | 38969 ft | 473 kts | 104° |
| 2026-05-04 19:55 | 53.56431 | 43.38094 | 38952 ft | 473 kts | 104° |
| 2026-05-04 19:55 | 53.54712 | 43.48667 | 38971 ft | 474 kts | 104° |
| 2026-05-04 19:56 | 53.52965 | 43.59358 | 38959 ft | 474 kts | 104° |
| 2026-05-04 19:56 | 53.51218 | 43.69967 | 38958 ft | 475 kts | 105° |
| 2026-05-04 19:57 | 53.49634 | 43.78018 | 38950 ft | 475 kts | 111° |
| 2026-05-04 19:57 | 53.46848 | 43.87970 | 38961 ft | 476 kts | 119° |
| 2026-05-04 19:58 | 53.43272 | 43.97240 | 38966 ft | 476 kts | 127° |
| 2026-05-04 19:58 | 53.39090 | 44.05833 | 38966 ft | 476 kts | 130° |
| 2026-05-04 19:59 | 53.34870 | 44.14299 | 38935 ft | 477 kts | 130° |
| 2026-05-04 19:59 | 53.32733 | 44.18586 | 38651 ft | 479 kts | 129° |
| 2026-05-04 19:59 | 53.30605 | 44.22853 | 38383 ft | 479 kts | 129° |
| 2026-05-04 19:59 | 53.28490 | 44.27089 | 38151 ft | 479 kts | 129° |
| 2026-05-04 20:00 | 53.26371 | 44.31331 | 37847 ft | 480 kts | 129° |
| 2026-05-04 20:00 | 53.24219 | 44.35635 | 37486 ft | 479 kts | 129° |
| 2026-05-04 20:00 | 53.22108 | 44.39843 | 37037 ft | 479 kts | 129° |
| 2026-05-04 20:00 | 53.19968 | 44.44099 | 36506 ft | 477 kts | 129° |
| 2026-05-04 20:01 | 53.17853 | 44.48293 | 36053 ft | 476 kts | 128° |
| 2026-05-04 20:01 | 53.15732 | 44.52476 | 35470 ft | 476 kts | 128° |
| 2026-05-04 20:01 | 53.13616 | 44.56643 | 34814 ft | 476 kts | 128° |
| 2026-05-04 20:01 | 53.11481 | 44.60847 | 34092 ft | 473 kts | 128° |
| 2026-05-04 20:02 | 53.09384 | 44.64970 | 33382 ft | 474 kts | 127° |
| 2026-05-04 20:02 | 53.07268 | 44.69138 | 32641 ft | 476 kts | 128° |
| 2026-05-04 20:02 | 53.05132 | 44.73348 | 31883 ft | 478 kts | 127° |
| 2026-05-04 20:02 | 53.03009 | 44.77520 | 31130 ft | 480 kts | 127° |
| 2026-05-04 20:03 | 53.00860 | 44.81731 | 30361 ft | 481 kts | 127° |
| 2026-05-04 20:03 | 52.98683 | 44.85992 | 29593 ft | 482 kts | 127° |
| 2026-05-04 20:03 | 52.96520 | 44.90218 | 28840 ft | 484 kts | 127° |
| 2026-05-04 20:03 | 52.94295 | 44.94386 | 28064 ft | 488 kts | 132° |
| 2026-05-04 20:04 | 52.91750 | 44.98059 | 27281 ft | 494 kts | 141° |
| 2026-05-04 20:04 | 52.88863 | 45.01104 | 26642 ft | 498 kts | 149° |
| 2026-05-04 20:04 | 52.85781 | 45.03759 | 26113 ft | 501 kts | 151° |
| 2026-05-04 20:04 | 52.82668 | 45.06356 | 25567 ft | 503 kts | 152° |
| 2026-05-04 20:05 | 52.79572 | 45.08940 | 25015 ft | 504 kts | 151° |
| 2026-05-04 20:05 | 52.76442 | 45.11577 | 24451 ft | 505 kts | 151° |
| 2026-05-04 20:05 | 52.73330 | 45.14217 | 23887 ft | 504 kts | 151° |
| 2026-05-04 20:05 | 52.70248 | 45.16850 | 23314 ft | 500 kts | 151° |
| 2026-05-04 20:06 | 52.67178 | 45.19482 | 22750 ft | 496 kts | 151° |
| 2026-05-04 20:06 | 52.64156 | 45.22076 | 22206 ft | 492 kts | 150° |
| 2026-05-04 20:06 | 52.61148 | 45.24656 | 21648 ft | 488 kts | 150° |
| 2026-05-04 20:06 | 52.58166 | 45.27211 | 21097 ft | 484 kts | 150° |
| 2026-05-04 20:07 | 52.55180 | 45.29767 | 20538 ft | 481 kts | 150° |
| 2026-05-04 20:07 | 52.52259 | 45.32264 | 19975 ft | 478 kts | 150° |
| 2026-05-04 20:07 | 52.49331 | 45.34763 | 19408 ft | 474 kts | 150° |
| 2026-05-04 20:07 | 52.46419 | 45.37245 | 18844 ft | 471 kts | 150° |
| 2026-05-04 20:08 | 52.43534 | 45.39701 | 18287 ft | 467 kts | 150° |
| 2026-05-04 20:08 | 52.40652 | 45.42148 | 17730 ft | 464 kts | 150° |
| 2026-05-04 20:08 | 52.37826 | 45.44541 | 17197 ft | 459 kts | 151° |
| 2026-05-04 20:08 | 52.34993 | 45.46924 | 16662 ft | 455 kts | 151° |
| 2026-05-04 20:09 | 52.32193 | 45.49274 | 16119 ft | 452 kts | 151° |
| 2026-05-04 20:09 | 52.29422 | 45.51601 | 15587 ft | 448 kts | 151° |
| 2026-05-04 20:09 | 52.26690 | 45.53894 | 15055 ft | 444 kts | 151° |
| 2026-05-04 20:09 | 52.23967 | 45.56179 | 14524 ft | 440 kts | 151° |
| 2026-05-04 20:10 | 52.21251 | 45.58452 | 13993 ft | 437 kts | 151° |
| 2026-05-04 20:10 | 52.18575 | 45.60686 | 13476 ft | 433 kts | 151° |
| 2026-05-04 20:10 | 52.15939 | 45.62878 | 12954 ft | 429 kts | 151° |
| 2026-05-04 20:10 | 52.13295 | 45.65075 | 12460 ft | 423 kts | 152° |
| 2026-05-04 20:11 | 52.10701 | 45.67238 | 11962 ft | 413 kts | 152° |
| 2026-05-04 20:11 | 52.08185 | 45.69340 | 11508 ft | 403 kts | 152° |
| 2026-05-04 20:11 | 52.05748 | 45.71370 | 11084 ft | 394 kts | 152° |
| 2026-05-04 20:11 | 52.03328 | 45.73378 | 10689 ft | 384 kts | 152° |
| 2026-05-04 20:12 | 52.00971 | 45.75327 | 10395 ft | 372 kts | 152° |
| 2026-05-04 20:12 | 51.98798 | 45.77365 | 10217 ft | 355 kts | 139° |
| 2026-05-04 20:12 | 51.97325 | 45.80384 | 10091 ft | 334 kts | 113° |
| 2026-05-04 20:12 | 51.96482 | 45.83784 | 10003 ft | 318 kts | 108° |
| 2026-05-04 20:13 | 51.95706 | 45.87082 | 9614 ft | 314 kts | 109° |
| 2026-05-04 20:13 | 51.94928 | 45.90341 | 9262 ft | 310 kts | 109° |
| 2026-05-04 20:13 | 51.94136 | 45.93586 | 8914 ft | 305 kts | 109° |
| 2026-05-04 20:13 | 51.93362 | 45.96716 | 8578 ft | 301 kts | 110° |
| 2026-05-04 20:14 | 51.92585 | 45.99833 | 8239 ft | 296 kts | 110° |
| 2026-05-04 20:14 | 51.91811 | 46.02921 | 7907 ft | 292 kts | 110° |
| 2026-05-04 20:14 | 51.91058 | 46.05908 | 7585 ft | 288 kts | 110° |
| 2026-05-04 20:14 | 51.90307 | 46.08883 | 7265 ft | 283 kts | 110° |
| 2026-05-04 20:15 | 51.89565 | 46.11801 | 6951 ft | 279 kts | 110° |
| 2026-05-04 20:15 | 51.88823 | 46.14673 | 6642 ft | 274 kts | 110° |
| 2026-05-04 20:15 | 51.88102 | 46.17472 | 6350 ft | 270 kts | 110° |
| 2026-05-04 20:15 | 51.87395 | 46.20231 | 6058 ft | 266 kts | 110° |
| 2026-05-04 20:16 | 51.86690 | 46.22990 | 5756 ft | 261 kts | 110° |
| 2026-05-04 20:16 | 51.86006 | 46.25674 | 5465 ft | 258 kts | 110° |
| 2026-05-04 20:16 | 51.85331 | 46.28325 | 5177 ft | 254 kts | 110° |
| 2026-05-04 20:16 | 51.84657 | 46.30959 | 4893 ft | 251 kts | 110° |
| 2026-05-04 20:17 | 51.84000 | 46.33528 | 4613 ft | 248 kts | 110° |
| 2026-05-04 20:17 | 51.83347 | 46.36080 | 4337 ft | 244 kts | 110° |
| 2026-05-04 20:17 | 51.82700 | 46.38597 | 4063 ft | 242 kts | 110° |
| 2026-05-04 20:17 | 51.82064 | 46.41074 | 3795 ft | 238 kts | 110° |
| 2026-05-04 20:18 | 51.81438 | 46.43513 | 3533 ft | 235 kts | 110° |
| 2026-05-04 20:18 | 51.80762 | 46.45923 | 3247 ft | 234 kts | 121° |
| 2026-05-04 20:18 | 51.79579 | 46.47602 | 3076 ft | 229 kts | 155° |
| 2026-05-04 20:18 | 51.78028 | 46.48081 | 2864 ft | 230 kts | 186° |
| 2026-05-04 20:19 | 51.76504 | 46.47361 | 2629 ft | 228 kts | 204° |
| 2026-05-04 20:19 | 51.75046 | 46.46344 | 2390 ft | 228 kts | 204° |
| 2026-05-04 20:19 | 51.73587 | 46.45329 | 2147 ft | 226 kts | 204° |
| 2026-05-04 20:19 | 51.72168 | 46.44360 | 2026 ft | 216 kts | 206° |
| 2026-05-04 20:20 | 51.71034 | 46.43016 | 2015 ft | 198 kts | 239° |
| 2026-05-04 20:20 | 51.70635 | 46.41000 | 2049 ft | 181 kts | 268° |
| 2026-05-04 20:20 | 51.70667 | 46.39079 | 2013 ft | 161 kts | 277° |
| 2026-05-04 20:20 | 51.70770 | 46.37377 | 2007 ft | 150 kts | 277° |
| 2026-05-04 20:21 | 51.70847 | 46.35706 | 2026 ft | 150 kts | 276° |
| 2026-05-04 20:21 | 51.70896 | 46.34052 | 1897 ft | 142 kts | 275° |
| 2026-05-04 20:21 | 51.70959 | 46.31021 | 1523 ft | 134 kts | 274° |
| 2026-05-04 20:22 | 51.70989 | 46.29515 | 1352 ft | 133 kts | 274° |
| 2026-05-04 20:22 | 51.71020 | 46.28054 | 1181 ft | 131 kts | 274° |
| 2026-05-04 20:22 | 51.71051 | 46.26588 | 1005 ft | 130 kts | 274° |
| 2026-05-04 20:22 | 51.71083 | 46.25124 | 830 ft | 130 kts | 274° |
| 2026-05-04 20:23 | 51.71115 | 46.23680 | 655 ft | 130 kts | 274° |
| 2026-05-04 20:23 | 51.71149 | 46.22233 | 480 ft | 129 kts | 274° |
| 2026-05-04 20:23 | 51.71186 | 46.20791 | 311 ft | 129 kts | 273° |
| 2026-05-04 20:23 | 51.71208 | 46.19346 | 151 ft | 128 kts | 273° |
| 2026-05-04 20:24 | 51.71242 | 46.18030 | 87 ft | 89 kts | 272° |
| 2026-05-04 20:24 | 51.71265 | 46.17465 | 84 ft | 23 kts | 303° |
| 2026-05-04 20:24 | 51.71410 | 46.17427 | 86 ft | 21 kts | 359° |
| 2026-05-04 20:24 | 51.71555 | 46.17434 | 89 ft | 20 kts | 1° |
| 2026-05-04 20:25 | 51.71635 | 46.17370 | 90 ft | 13 kts | 265° |
| 2026-05-04 20:25 | 51.71642 | 46.17199 | 90 ft | 17 kts | 271° |
| 2026-05-04 20:25 | 51.71652 | 46.17063 | 90 ft | 7 kts | 307° |
| 2026-05-04 20:25 | 51.71701 | 46.17043 | 91 ft | 5 kts | 1° |
| 2026-05-04 20:26 | 51.71707 | 46.17043 | 91 ft | 0 kts | 1° |
| 2026-05-04 20:26 | 51.71709 | 46.17043 | 91 ft | 0 kts | 0° |